Time;durP1;ratioP1;P1;durP2;ratioP2;P2;SDS_P1;SDS_P2;PMS_P1;PMS_P2;Temp;Humidity;BMP_temperature;BMP_pressure;BME280_temperature;BME280_humidity;BME280_pressure;Samples;Min_cycle;Max_cycle;Signal;HPM_P1;HPM_P2
2022/10/08 00:00:06;;;;;;;4.25;2.90;;;;;;;10.03;61.38;95545.00;5070105;28;20029;-72
2022/10/08 00:02:32;;;;;;;6.50;2.90;;;;;;;10.06;61.10;95545.63;5063780;28;20045;-72
2022/10/08 00:04:57;;;;;;;4.25;2.95;;;;;;;10.03;61.56;95537.22;5066761;28;20028;-72
2022/10/08 00:07:23;;;;;;;4.60;2.80;;;;;;;10.02;61.50;95543.31;5066941;28;20478;-72
2022/10/08 00:09:48;;;;;;;4.93;2.95;;;;;;;9.99;61.56;95533.97;5036540;28;20024;-73
2022/10/08 00:12:14;;;;;;;5.15;3.05;;;;;;;9.98;61.73;95536.72;5071203;28;20032;-72
2022/10/08 00:14:39;;;;;;;4.47;2.80;;;;;;;9.94;61.90;95530.88;5053601;28;20033;-72
2022/10/08 00:17:05;;;;;;;3.55;2.80;;;;;;;9.99;61.72;95533.16;5069662;28;20466;-72
2022/10/08 00:19:30;;;;;;;4.18;2.90;;;;;;;9.91;61.93;95530.25;5069957;28;20078;-72
2022/10/08 00:21:56;;;;;;;5.78;2.83;;;;;;;9.82;61.93;95527.34;5053148;28;20043;-72
2022/10/08 00:24:22;;;;;;;3.80;3.00;;;;;;;9.75;62.68;95540.84;5053191;28;20475;-72
2022/10/08 00:26:47;;;;;;;3.83;2.80;;;;;;;9.81;61.95;95536.09;5053190;28;20081;-72
2022/10/08 00:29:14;;;;;;;5.20;3.20;;;;;;;9.79;62.74;95537.13;5053074;28;20032;-72
2022/10/08 00:31:40;;;;;;;5.05;3.45;;;;;;;9.85;62.39;95534.09;5052980;28;20103;-72
2022/10/08 00:34:08;;;;;;;4.30;3.03;;;;;;;9.92;62.04;95530.16;5069509;28;20106;-72
2022/10/08 00:36:35;;;;;;;5.53;3.13;;;;;;;9.94;62.17;95524.84;5052290;28;20053;-72
2022/10/08 00:39:09;;;;;;;5.07;4.07;;;;;;;9.76;62.79;95522.59;5053386;28;20037;-72
2022/10/08 00:41:38;;;;;;;4.40;3.40;;;;;;;9.66;63.11;95521.56;5053441;28;20032;-72
2022/10/08 00:44:41;;;;;;;8.60;3.10;;;;;;;9.62;63.31;95525.31;5053302;28;20055;-72
2022/10/08 00:47:34;;;;;;;6.07;3.30;;;;;;;9.56;63.67;95518.78;5070757;28;20124;-72
2022/10/08 00:50:25;;;;;;;4.45;3.22;;;;;;;9.57;63.57;95520.41;5070268;28;20048;-72
2022/10/08 00:52:55;;;;;;;5.40;2.97;;;;;;;9.35;63.81;95502.88;5069659;28;20410;-72
2022/10/08 00:55:22;;;;;;;5.43;3.28;;;;;;;9.29;63.92;95505.06;5069506;28;20040;-72
2022/10/08 00:57:47;;;;;;;4.72;2.92;;;;;;;9.29;63.83;95515.44;5036325;28;20123;-72
2022/10/08 01:00:16;;;;;;;5.13;3.22;;;;;;;9.11;64.01;95501.91;5052625;28;20082;-72
2022/10/08 01:02:41;;;;;;;5.95;3.97;;;;;;;9.05;64.51;95510.91;5036333;28;20039;-72
2022/10/08 01:05:07;;;;;;;7.05;3.80;;;;;;;8.98;65.03;95494.13;5052696;28;20032;-72
2022/10/08 01:07:48;;;;;;;6.07;3.60;;;;;;;8.89;65.01;95487.78;5069291;28;20467;-72
2022/10/08 01:10:19;;;;;;;5.07;3.50;;;;;;;9.02;65.09;95490.38;5069578;28;20325;-72
2022/10/08 01:12:58;;;;;;;;;;;;;;;8.99;64.96;95497.53;5053168;28;20033;-72
2022/10/08 01:15:40;;;;;;;4.05;2.83;;;;;;;8.87;65.16;95483.63;5052528;28;19926;-72
2022/10/08 01:18:11;;;;;;;7.60;3.17;;;;;;;8.74;65.21;95483.59;5053663;28;20028;-72
2022/10/08 01:20:55;;;;;;;6.15;3.72;;;;;;;8.59;66.13;95482.00;5052642;28;20389;-72
2022/10/08 01:23:39;;;;;;;6.00;3.63;;;;;;;8.69;66.07;95483.06;5069224;28;20037;-72
2022/10/08 01:26:35;;;;;;;5.03;3.47;;;;;;;8.76;65.91;95475.75;5052358;28;20028;-72
2022/10/08 01:29:28;;;;;;;6.05;3.95;;;;;;;8.73;65.93;95475.00;5069560;28;20029;-72
2022/10/08 01:31:58;;;;;;;6.68;4.00;;;;;;;8.68;66.32;95471.03;5067271;28;20123;-72
2022/10/08 01:34:43;;;;;;;5.63;4.00;;;;;;;8.68;66.54;95456.31;5070371;28;20036;-72
2022/10/08 01:37:13;;;;;;;5.63;3.95;;;;;;;8.70;66.38;95467.44;5054046;28;20057;-72
2022/10/08 01:39:38;;;;;;;4.97;3.72;;;;;;;8.72;66.28;95464.75;5052839;28;20043;-72
2022/10/08 01:42:05;;;;;;;5.95;4.00;;;;;;;8.66;66.42;95463.41;5052161;28;20479;-72
2022/10/08 01:44:36;;;;;;;4.85;3.53;;;;;;;8.62;66.54;95461.09;5052413;28;20032;-72
2022/10/08 01:47:04;;;;;;;4.28;2.88;;;;;;;8.70;65.70;95457.06;5069166;28;20089;-72
2022/10/08 01:49:33;;;;;;;6.28;2.78;;;;;;;8.71;65.43;95435.41;5052299;28;20040;-72
2022/10/08 01:52:07;;;;;;;4.00;2.70;;;;;;;8.80;64.98;95446.91;5068980;28;20029;-72
2022/10/08 01:54:32;;;;;;;6.07;2.92;;;;;;;8.86;64.67;95443.94;5055814;28;20039;-72
2022/10/08 01:56:59;;;;;;;4.63;2.80;;;;;;;8.93;64.30;95450.38;5039381;28;20128;-72
2022/10/08 01:59:31;;;;;;;3.58;2.60;;;;;;;9.00;64.19;95447.38;5056409;28;20103;-73
2022/10/08 02:02:24;;;;;;;4.57;2.83;;;;;;;9.04;63.74;95448.84;5072400;28;20036;-72
2022/10/08 02:04:52;;;;;;;4.35;2.80;;;;;;;9.09;63.88;95439.00;5072444;28;20117;-72
2022/10/08 02:07:29;;;;;;;4.35;2.97;;;;;;;9.08;64.07;95437.31;5041379;28;20078;-72
2022/10/08 02:10:21;;;;;;;4.70;2.63;;;;;;;9.21;63.62;95445.94;5035669;28;20029;-72
2022/10/08 02:12:46;;;;;;;6.25;2.67;;;;;;;9.26;63.14;95451.66;5050276;28;20098;-72
2022/10/08 02:15:47;;;;;;;4.63;2.83;;;;;;;9.29;63.10;95450.63;5035477;28;20033;-72
2022/10/08 02:18:17;;;;;;;3.80;2.27;;;;;;;9.32;62.67;95435.66;5041193;28;20048;-73
2022/10/08 02:21:03;;;;;;;4.10;2.78;;;;;;;9.28;63.41;95454.16;5052126;28;20029;-72
2022/10/08 02:24:01;;;;;;;5.10;2.55;;;;;;;9.27;64.04;95463.66;5035716;28;20033;-72
2022/10/08 02:26:30;;;;;;;3.65;2.50;;;;;;;9.20;64.41;95472.81;5050693;28;20422;-72
2022/10/08 02:29:23;;;;;;;6.25;2.65;;;;;;;9.00;64.87;95468.94;5035161;28;20049;-72
2022/10/08 02:31:58;;;;;;;3.33;2.20;;;;;;;8.78;64.98;95460.94;5033308;28;20135;-72
2022/10/08 02:34:37;;;;;;;4.00;2.60;;;;;;;8.77;65.33;95459.25;5051832;28;20048;-72
2022/10/08 02:37:08;;;;;;;4.38;2.90;;;;;;;8.81;65.07;95465.91;5051717;28;20045;-72
2022/10/08 02:39:34;;;;;;;5.10;3.08;;;;;;;8.78;65.48;95466.13;5035864;28;20035;-72
2022/10/08 02:42:01;;;;;;;4.15;3.20;;;;;;;8.66;65.93;95472.91;5051675;28;20060;-72
2022/10/08 02:44:33;;;;;;;6.35;3.60;;;;;;;8.50;66.35;95468.72;5051581;28;20171;-72
2022/10/08 02:46:59;;;;;;;5.25;3.70;;;;;;;8.36;66.58;95460.97;5051418;28;20491;-72
2022/10/08 02:49:30;;;;;;;5.95;3.38;;;;;;;8.18;66.64;95467.31;5051575;28;20029;-72
2022/10/08 02:51:56;;;;;;;7.28;3.45;;;;;;;8.06;67.33;95471.50;5052721;28;20107;-72
2022/10/08 02:54:22;;;;;;;7.28;4.15;;;;;;;7.90;67.73;95466.44;5051754;28;20033;-72
2022/10/08 02:56:51;;;;;;;6.43;4.30;;;;;;;7.88;68.26;95468.28;5051315;28;20029;-72
2022/10/08 02:59:17;;;;;;;7.68;4.82;;;;;;;7.81;68.12;95454.09;5060436;28;20122;-72
2022/10/08 03:01:45;;;;;;;5.65;4.13;;;;;;;7.83;68.42;95449.66;5035857;28;20490;-72
2022/10/08 03:04:22;;;;;;;8.00;4.15;;;;;;;7.82;67.94;95453.97;5069097;28;20039;-72
2022/10/08 03:06:47;;;;;;;6.38;4.53;;;;;;;7.71;67.77;95451.22;5033583;28;20052;-72
2022/10/08 03:09:13;;;;;;;6.32;4.43;;;;;;;7.52;67.97;95448.09;5066389;28;20716;-72
2022/10/08 03:11:38;;;;;;;5.75;4.07;;;;;;;7.49;68.78;95449.09;5050140;28;20418;-72
2022/10/08 03:14:05;;;;;;;5.70;3.92;;;;;;;7.47;69.33;95455.31;5050566;28;20029;-72
2022/10/08 03:16:35;;;;;;;9.48;4.88;;;;;;;7.43;69.91;95449.47;5050969;28;20021;-72
2022/10/08 03:19:01;;;;;;;7.55;4.70;;;;;;;7.49;70.34;95449.09;5050765;28;20044;-72
2022/10/08 03:21:27;;;;;;;6.97;4.70;;;;;;;7.53;70.12;95447.19;5050834;28;20029;-72
2022/10/08 03:23:52;;;;;;;7.20;4.85;;;;;;;7.50;70.54;95458.53;5051020;28;20029;-72
2022/10/08 03:26:18;;;;;;;6.22;4.50;;;;;;;7.53;70.21;95454.94;5050234;28;20415;-72
2022/10/08 03:28:43;;;;;;;8.35;5.07;;;;;;;7.52;69.94;95448.94;5051045;28;20060;-72
2022/10/08 03:31:09;;;;;;;8.10;4.93;;;;;;;7.61;69.83;95448.38;5034054;28;20025;-72
2022/10/08 03:33:34;;;;;;;6.22;4.68;;;;;;;7.46;69.90;95448.47;5050910;28;20040;-71
2022/10/08 03:36:00;;;;;;;7.38;5.22;;;;;;;7.48;70.36;95447.47;5067143;28;20049;-72
2022/10/08 03:38:25;;;;;;;8.00;5.28;;;;;;;7.49;70.61;95440.53;5050741;28;20112;-72
2022/10/08 03:40:57;;;;;;;8.35;6.07;;;;;;;7.35;71.02;95439.63;5050525;28;20561;-72
2022/10/08 03:43:23;;;;;;;7.80;5.40;;;;;;;7.42;71.09;95447.84;5034053;28;20040;-72
2022/10/08 03:45:52;;;;;;;10.60;6.80;;;;;;;7.43;71.14;95444.31;5050384;28;20102;-72
2022/10/08 03:48:18;;;;;;;6.75;5.28;;;;;;;7.42;71.11;95453.00;5050430;28;20037;-72
2022/10/08 03:51:10;;;;;;;8.68;5.30;;;;;;;7.46;70.96;95448.47;5050387;28;20052;-72
2022/10/08 03:53:37;;;;;;;9.10;6.43;;;;;;;7.40;70.95;95447.09;5032935;28;20041;-72
2022/10/08 03:56:03;;;;;;;10.20;5.30;;;;;;;7.23;70.65;95447.28;5050098;28;20094;-72
2022/10/08 03:58:29;;;;;;;7.63;4.90;;;;;;;7.22;70.93;95450.78;5050459;28;20037;-72
2022/10/08 04:00:57;;;;;;;7.93;5.22;;;;;;;7.24;70.97;95449.75;5066801;28;20080;-71
2022/10/08 04:03:23;;;;;;;8.10;5.40;;;;;;;7.27;71.26;95441.84;5051740;28;20035;-72
2022/10/08 04:05:48;;;;;;;8.10;5.40;;;;;;;7.29;70.97;95447.72;5067915;28;20681;-72
2022/10/08 04:08:14;;;;;;;8.85;5.80;;;;;;;7.25;71.49;95435.09;5069683;28;20051;-72
2022/10/08 04:10:39;;;;;;;7.43;5.60;;;;;;;7.26;71.37;95435.00;5071231;28;20032;-72
2022/10/08 04:13:05;;;;;;;9.57;5.47;;;;;;;7.28;71.20;95450.41;5070087;28;20040;-71
2022/10/08 04:15:30;;;;;;;7.95;4.97;;;;;;;7.13;71.30;95445.25;5071137;28;20020;-72
2022/10/08 04:17:55;;;;;;;7.25;4.50;;;;;;;7.19;71.50;95450.94;5069211;28;20040;-72
2022/10/08 04:20:21;;;;;;;6.78;4.65;;;;;;;7.21;71.42;95454.28;5069804;28;20024;-72
2022/10/08 04:22:47;;;;;;;6.00;4.20;;;;;;;7.26;71.04;95460.00;5070985;28;20036;-72
2022/10/08 04:25:13;;;;;;;6.60;4.30;;;;;;;7.10;71.27;95442.84;5036560;28;20506;-72
2022/10/08 04:27:38;;;;;;;7.50;4.50;;;;;;;7.01;71.66;95455.44;5069834;28;20044;-72
2022/10/08 04:30:05;;;;;;;6.15;4.22;;;;;;;7.12;71.98;95450.50;5053102;28;20032;-72
2022/10/08 04:32:30;;;;;;;7.43;4.45;;;;;;;7.05;71.98;95460.38;5047049;28;20032;-72
2022/10/08 04:34:55;;;;;;;7.13;4.30;;;;;;;6.88;72.38;95437.25;5061888;28;20039;-72
2022/10/08 04:37:21;;;;;;;5.82;4.35;;;;;;;7.01;72.37;95453.69;5058445;28;20057;-72
2022/10/08 04:39:47;;;;;;;5.70;4.20;;;;;;;7.03;72.00;95457.03;5052864;28;20024;-72
2022/10/08 04:42:12;;;;;;;5.85;4.15;;;;;;;7.11;71.55;95454.00;5052981;28;20051;-72
2022/10/08 04:44:38;;;;;;;6.53;4.13;;;;;;;6.98;71.69;95453.88;5027005;28;20419;-72
2022/10/08 04:47:03;;;;;;;6.03;4.20;;;;;;;7.04;72.19;95453.50;5058811;28;20043;-72
2022/10/08 04:49:29;;;;;;;6.00;4.13;;;;;;;7.01;71.71;95445.13;5059195;28;20488;-72
2022/10/08 04:51:54;;;;;;;6.03;4.50;;;;;;;6.89;72.46;95452.66;5062452;28;20037;-72
2022/10/08 04:54:20;;;;;;;7.10;4.95;;;;;;;6.79;72.88;95455.88;5066752;28;20356;-72
2022/10/08 04:56:45;;;;;;;7.85;5.10;;;;;;;6.89;73.17;95459.59;5069571;28;20406;-72
2022/10/08 04:59:11;;;;;;;6.05;4.60;;;;;;;6.88;72.96;95450.16;5070293;28;20032;-71
2022/10/08 05:01:36;;;;;;;6.15;4.40;;;;;;;6.92;73.42;95443.91;5051621;28;20032;-72
2022/10/08 05:04:02;;;;;;;7.03;4.35;;;;;;;7.00;72.79;95446.06;5062153;28;20033;-72
2022/10/08 05:06:29;;;;;;;7.57;5.32;;;;;;;6.96;72.98;95445.38;5062082;28;20494;-74
2022/10/08 05:08:54;;;;;;;6.57;4.78;;;;;;;6.89;73.09;95436.34;5036451;28;20045;-71
2022/10/08 05:11:25;;;;;;;5.97;4.50;;;;;;;7.01;72.98;95450.28;5062101;28;20032;-77
2022/10/08 05:13:54;;;;;;;8.90;5.13;;;;;;;6.95;73.36;95438.56;5059259;28;20577;-73
2022/10/08 05:16:19;;;;;;;7.90;4.65;;;;;;;6.98;72.93;95446.13;5051376;28;20044;-71
2022/10/08 05:18:45;;;;;;;8.88;5.28;;;;;;;6.87;73.41;95448.50;5046435;28;20037;-72
2022/10/08 05:21:15;;;;;;;7.55;4.43;;;;;;;6.90;73.47;95445.75;5063651;28;20052;-73
2022/10/08 05:23:44;;;;;;;6.63;4.68;;;;;;;7.02;73.51;95454.53;5066601;28;20090;-72
2022/10/08 05:26:16;;;;;;;9.00;5.30;;;;;;;6.86;73.54;95449.44;5062432;28;20078;-72
2022/10/08 05:28:43;;;;;;;10.10;5.80;;;;;;;6.86;73.91;95460.59;5067151;28;20154;-75
2022/10/08 05:31:08;;;;;;;8.30;5.97;;;;;;;6.88;73.96;95463.06;5053439;28;20086;-74
2022/10/08 05:33:35;;;;;;;9.90;5.47;;;;;;;7.03;73.72;95466.53;5036022;28;20044;-74
2022/10/08 05:36:07;;;;;;;8.68;6.32;;;;;;;7.10;73.91;95473.84;5052004;28;20124;-72
2022/10/08 05:38:33;;;;;;;8.55;6.07;;;;;;;7.02;74.33;95467.44;5055043;28;20040;-73
2022/10/08 05:41:14;;;;;;;8.20;5.43;;;;;;;7.14;73.99;95464.16;5038414;28;20109;-73
2022/10/08 05:43:40;;;;;;;9.45;5.28;;;;;;;7.05;74.12;95477.59;5069016;28;20070;-73
2022/10/08 05:46:05;;;;;;;7.93;5.00;;;;;;;7.15;73.76;95466.63;5038688;28;20110;-74
2022/10/08 05:48:31;;;;;;;6.72;4.90;;;;;;;7.23;73.67;95467.94;5044808;28;20087;-73
2022/10/08 05:51:01;;;;;;;7.45;5.05;;;;;;;7.25;73.51;95466.09;5055345;28;20112;-72
2022/10/08 05:53:27;;;;;;;6.45;4.97;;;;;;;7.28;73.48;95463.34;5074091;28;20029;-73
2022/10/08 05:55:59;;;;;;;6.57;4.50;;;;;;;7.36;73.43;95458.53;5072026;28;20518;-73
2022/10/08 05:58:25;;;;;;;7.63;5.03;;;;;;;7.48;73.71;95465.56;5056161;28;20068;-72
2022/10/08 06:01:00;;;;;;;9.07;4.70;;;;;;;8.55;70.35;95465.00;5072654;28;20181;-73
2022/10/08 06:03:27;;;;;;;5.57;4.70;;;;;;;9.33;67.09;95457.25;5072022;28;20050;-74
2022/10/08 06:05:53;;;;;;;6.55;4.47;;;;;;;10.00;64.35;95457.78;5071798;28;20042;-75
2022/10/08 06:08:18;;;;;;;5.00;4.03;;;;;;;10.46;62.75;95453.72;5073831;28;20040;-75
2022/10/08 06:10:50;;;;;;;9.27;4.18;;;;;;;10.69;62.06;95457.22;5072520;28;20032;-74
2022/10/08 06:13:16;;;;;;;7.93;4.55;;;;;;;11.07;61.15;95459.59;5054999;28;20110;-75
2022/10/08 06:15:52;;;;;;;6.75;4.47;;;;;;;11.21;60.66;95453.38;5072662;28;20469;-77
2022/10/08 06:18:17;;;;;;;8.25;4.60;;;;;;;11.77;59.19;95444.78;5073625;28;20108;-75
2022/10/08 06:20:43;;;;;;;6.70;4.40;;;;;;;12.47;57.49;95457.47;5073024;28;20028;-73
2022/10/08 06:23:08;;;;;;;6.47;4.40;;;;;;;12.82;56.25;95448.59;5072671;28;20029;-72
2022/10/08 06:25:35;;;;;;;9.32;4.60;;;;;;;13.40;54.26;95456.84;5072762;28;20552;-74
2022/10/08 06:28:01;;;;;;;7.40;4.60;;;;;;;13.94;53.11;95456.69;5071078;28;20099;-74
2022/10/08 06:30:26;;;;;;;8.20;4.90;;;;;;;14.50;51.23;95446.50;5071124;28;20028;-73
2022/10/08 06:32:52;;;;;;;7.43;5.13;;;;;;;15.00;49.66;95437.75;5073037;28;20035;-74
2022/10/08 06:35:17;;;;;;;8.68;5.40;;;;;;;15.62;47.47;95444.22;5072584;28;20033;-74
2022/10/08 06:37:46;;;;;;;8.93;5.50;;;;;;;16.13;46.43;95451.78;5072580;28;20049;-74
2022/10/08 06:40:11;;;;;;;10.38;6.10;;;;;;;16.58;44.90;95448.38;5033841;28;20047;-75
2022/10/08 06:42:37;;;;;;;6.82;5.57;;;;;;;16.69;44.23;95443.72;5052577;28;20499;-77
2022/10/08 06:45:02;;;;;;;6.68;5.60;;;;;;;16.81;43.89;95425.16;5068889;28;20410;-76
2022/10/08 06:47:28;;;;;;;8.25;5.47;;;;;;;17.58;43.00;95439.38;5072278;28;20039;-75
2022/10/08 06:49:53;;;;;;;7.22;5.18;;;;;;;18.08;42.66;95450.03;5072538;28;20017;-74
2022/10/08 06:52:18;;;;;;;9.85;5.38;;;;;;;18.71;40.93;95442.63;5071868;28;20036;-74
2022/10/08 06:54:44;;;;;;;8.82;5.00;;;;;;;18.73;41.40;95428.34;5072137;28;20029;-78
2022/10/08 06:57:09;;;;;;;12.25;5.80;;;;;;;18.85;40.24;95433.31;5072466;28;20434;-76
2022/10/08 06:59:35;;;;;;;14.30;5.82;;;;;;;19.18;40.16;95431.53;5071404;28;20028;-76
2022/10/08 07:02:00;;;;;;;7.90;5.28;;;;;;;19.17;39.37;95433.34;5071811;28;20036;-77
2022/10/08 07:04:26;;;;;;;12.52;5.70;;;;;;;19.34;39.01;95433.34;5071558;28;20032;-77
2022/10/08 07:06:51;;;;;;;10.55;5.18;;;;;;;19.66;39.75;95427.19;5071006;28;20024;-76
2022/10/08 07:09:17;;;;;;;10.32;5.60;;;;;;;19.53;39.51;95424.22;5071984;28;20028;-76
2022/10/08 07:11:42;;;;;;;11.85;5.72;;;;;;;19.83;38.73;95428.81;5066435;28;20087;-74
2022/10/08 07:14:07;;;;;;;17.48;9.15;;;;;;;19.91;38.78;95435.88;5064981;28;20060;-74
2022/10/08 07:16:33;;;;;;;14.55;9.15;;;;;;;19.58;39.26;95414.00;5069358;28;20020;-75
2022/10/08 07:18:58;;;;;;;12.80;7.70;;;;;;;19.56;39.10;95432.66;5064920;28;20039;-75
2022/10/08 07:21:24;;;;;;;13.50;7.00;;;;;;;19.52;39.32;95433.13;5064535;28;20025;-75
2022/10/08 07:23:50;;;;;;;11.20;6.45;;;;;;;19.63;39.26;95433.59;5067765;28;20024;-75
2022/10/08 07:26:17;;;;;;;13.48;5.53;;;;;;;19.64;39.86;95432.63;5049240;28;20056;-75
2022/10/08 07:28:46;;;;;;;9.75;5.88;;;;;;;19.64;39.76;95432.63;5064689;28;20032;-75
2022/10/08 07:31:15;;;;;;;13.30;6.07;;;;;;;19.44;39.56;95412.88;5049955;28;20091;-75
2022/10/08 07:33:41;;;;;;;13.25;6.07;;;;;;;19.35;39.83;95419.16;5066967;28;20125;-75
2022/10/08 07:36:13;;;;;;;13.55;5.47;;;;;;;19.25;40.37;95424.63;5045709;28;20052;-75
2022/10/08 07:38:39;;;;;;;10.52;6.07;;;;;;;19.31;40.48;95428.41;5068749;28;20033;-75
2022/10/08 07:41:05;;;;;;;11.43;5.70;;;;;;;19.31;40.99;95420.50;5066379;28;20032;-75
2022/10/08 07:43:30;;;;;;;10.77;6.53;;;;;;;19.31;40.44;95415.22;5032783;28;20032;-75
2022/10/08 07:45:55;;;;;;;9.88;7.00;;;;;;;19.29;40.59;95427.72;5063043;28;20047;-75
2022/10/08 07:48:21;;;;;;;11.77;6.47;;;;;;;19.20;40.52;95419.84;5050693;28;20588;-75
2022/10/08 07:50:47;;;;;;;9.73;6.00;;;;;;;19.00;41.53;95420.31;5066053;28;20476;-74
2022/10/08 07:53:12;;;;;;;10.85;6.05;;;;;;;19.06;41.41;95415.22;5067824;28;20068;-74
2022/10/08 07:55:38;;;;;;;10.90;6.13;;;;;;;19.04;41.74;95409.31;5046794;28;20021;-75
2022/10/08 07:58:03;;;;;;;13.23;6.45;;;;;;;18.95;41.92;95407.66;5047735;28;20086;-74
2022/10/08 08:00:29;;;;;;;8.57;6.28;;;;;;;18.69;42.31;95407.75;5049404;28;20060;-75
2022/10/08 08:02:54;;;;;;;11.75;5.82;;;;;;;18.72;42.69;95408.28;5049628;28;20037;-74
2022/10/08 08:05:20;;;;;;;10.45;6.10;;;;;;;18.94;42.59;95408.63;5045010;28;20396;-75
2022/10/08 08:07:45;;;;;;;11.98;7.57;;;;;;;18.92;43.06;95405.38;5048931;28;20039;-75
2022/10/08 08:10:11;;;;;;;13.05;8.38;;;;;;;18.89;42.03;95408.31;5065121;28;20103;-75
2022/10/08 08:12:36;;;;;;;12.20;6.65;;;;;;;18.82;42.21;95394.16;5065564;28;20525;-75
2022/10/08 08:15:02;;;;;;;10.82;5.93;;;;;;;18.92;42.19;95395.66;5064237;28;20048;-75
2022/10/08 08:17:27;;;;;;;10.80;5.30;;;;;;;19.00;43.17;95397.47;5047840;28;20058;-75
2022/10/08 08:19:52;;;;;;;8.82;5.30;;;;;;;18.79;42.23;95397.13;5065922;28;20025;-74
2022/10/08 08:22:18;;;;;;;11.05;6.00;;;;;;;18.65;43.15;95399.38;5060851;28;20048;-75
2022/10/08 08:24:43;;;;;;;7.78;5.13;;;;;;;18.73;42.91;95391.50;5063877;28;20051;-74
2022/10/08 08:27:09;;;;;;;9.77;5.30;;;;;;;18.80;42.91;95396.94;5064700;28;20029;-75
2022/10/08 08:29:34;;;;;;;7.93;5.28;;;;;;;18.78;42.54;95392.81;5047700;28;20091;-75
2022/10/08 08:32:00;;;;;;;8.48;5.00;;;;;;;18.93;42.77;95393.84;5065688;28;20434;-73
2022/10/08 08:34:25;;;;;;;7.05;5.45;;;;;;;18.92;42.57;95398.28;5062817;28;20021;-73
2022/10/08 08:36:52;;;;;;;9.07;5.43;;;;;;;18.83;42.63;95387.91;5047665;28;20052;-73
2022/10/08 08:39:25;;;;;;;15.27;9.13;;;;;;;18.94;43.32;95387.56;5047806;28;20119;-74
2022/10/08 08:41:52;;;;;;;17.50;9.68;;;;;;;18.90;43.19;95389.72;5065470;28;20078;-73
2022/10/08 08:44:20;;;;;;;21.83;12.73;;;;;;;18.90;42.87;95383.63;5065284;28;20029;-73
2022/10/08 08:47:19;;;;;;;13.98;6.88;;;;;;;18.87;42.75;95383.97;5065374;28;20029;-73
2022/10/08 08:50:00;;;;;;;10.25;5.47;;;;;;;18.92;42.86;95379.03;5057574;28;20066;-73
2022/10/08 08:52:28;;;;;;;9.05;5.28;;;;;;;18.93;43.03;95378.84;5046906;28;20028;-73
2022/10/08 08:54:54;;;;;;;10.73;4.93;;;;;;;18.91;42.39;95369.47;5058322;28;20103;-73
2022/10/08 08:57:22;;;;;;;12.70;5.45;;;;;;;18.96;42.56;95375.91;5061860;28;20132;-73
2022/10/08 08:59:48;;;;;;;6.32;4.70;;;;;;;18.90;42.48;95373.09;5064654;28;20029;-73
2022/10/08 09:02:29;;;;;;;10.52;4.75;;;;;;;18.91;42.86;95358.94;5064157;28;20410;-73
2022/10/08 09:05:04;;;;;;;10.27;5.20;;;;;;;18.92;42.22;95360.63;5068192;28;20508;-73
2022/10/08 09:07:39;;;;;;;6.97;4.32;;;;;;;18.88;41.75;95370.63;5051783;28;20036;-73
2022/10/08 09:10:08;;;;;;;5.45;3.83;;;;;;;18.93;41.26;95356.97;5053760;28;20038;-73
2022/10/08 09:12:38;;;;;;;5.00;4.03;;;;;;;18.87;40.72;95347.13;5069170;28;20020;-73
2022/10/08 09:15:04;;;;;;;4.90;3.60;;;;;;;19.03;40.41;95355.00;5067123;28;20036;-73
2022/10/08 09:17:34;;;;;;;7.05;4.30;;;;;;;18.99;41.19;95353.69;5052941;28;20037;-73
2022/10/08 09:20:00;;;;;;;8.98;4.20;;;;;;;19.01;41.49;95351.72;5032574;28;20021;-73
2022/10/08 09:22:30;;;;;;;5.85;4.25;;;;;;;18.97;41.45;95358.28;5052882;28;20493;-73
2022/10/08 09:25:02;;;;;;;75.10;25.08;;;;;;;19.03;41.42;95347.13;5051036;28;20032;-73
2022/10/08 09:27:47;;;;;;;17.33;7.95;;;;;;;18.99;41.51;95345.78;5050907;28;20058;-73
2022/10/08 09:30:28;;;;;;;10.98;6.68;;;;;;;18.95;41.35;95339.22;5068797;28;20141;-73
2022/10/08 09:32:53;;;;;;;;;;;;;;;18.96;41.41;95335.59;5069561;28;20047;-73
2022/10/08 09:35:19;;;;;;;7.45;4.55;;;;;;;18.98;42.06;95331.00;5048763;28;19935;-73
2022/10/08 09:37:45;;;;;;;9.98;6.20;;;;;;;19.01;42.03;95317.50;5032281;28;20518;-73
2022/10/08 09:40:10;;;;;;;8.15;5.75;;;;;;;19.07;41.45;95329.97;5035522;28;20035;-74
2022/10/08 09:42:36;;;;;;;9.30;5.20;;;;;;;19.15;41.24;95324.72;5068779;28;20037;-74
2022/10/08 09:45:02;;;;;;;6.88;4.35;;;;;;;19.15;41.27;95313.34;5067032;28;20033;-74
2022/10/08 09:47:29;;;;;;;6.10;4.63;;;;;;;19.15;40.96;95318.63;5051864;28;20045;-74
2022/10/08 09:50:20;;;;;;;5.22;3.95;;;;;;;19.04;40.49;95318.97;5069370;28;20024;-74
2022/10/08 09:52:46;;;;;;;;;;;;;;;19.05;41.07;95318.78;5063017;28;20093;-74
2022/10/08 09:55:16;;;;;;;5.40;4.18;;;;;;;19.11;40.97;95315.50;5067082;28;19912;-74
2022/10/08 09:57:47;;;;;;;9.27;5.90;;;;;;;19.02;41.23;95313.84;5068562;28;20428;-74
2022/10/08 10:00:27;;;;;;;;;;;;;;;19.13;40.87;95310.06;5065722;28;20037;-74
2022/10/08 10:02:54;;;;;;;4.97;4.22;;;;;;;19.07;40.43;95306.28;5063359;28;19920;-74
2022/10/08 10:05:33;;;;;;;7.65;4.22;;;;;;;19.03;41.11;95299.72;5033239;28;20136;-74
2022/10/08 10:07:59;;;;;;;7.82;4.43;;;;;;;19.13;40.82;95305.63;5046262;28;20047;-74
2022/10/08 10:10:27;;;;;;;9.20;5.30;;;;;;;19.17;40.83;95295.59;5045269;28;20414;-74
2022/10/08 10:13:13;;;;;;;7.78;4.70;;;;;;;19.28;40.94;95292.59;5046118;28;20555;-75
2022/10/08 10:15:49;;;;;;;12.55;4.75;;;;;;;19.42;41.57;95289.25;5061925;28;20089;-75
2022/10/08 10:18:17;;;;;;;7.13;4.07;;;;;;;19.36;39.17;95282.03;5067814;28;20033;-74
2022/10/08 10:20:48;;;;;;;8.50;4.00;;;;;;;19.43;39.83;95285.63;5047805;28;20028;-74
2022/10/08 10:23:19;;;;;;;5.50;4.07;;;;;;;19.52;39.31;95277.69;5047857;28;20072;-75
2022/10/08 10:25:48;;;;;;;5.18;3.92;;;;;;;19.63;39.56;95280.75;5032880;28;20550;-74
2022/10/08 10:28:24;;;;;;;6.50;3.55;;;;;;;19.61;38.14;95282.78;5065284;28;20090;-75
2022/10/08 10:30:55;;;;;;;4.50;3.90;;;;;;;19.64;38.72;95271.88;5065631;28;20388;-73
2022/10/08 10:33:32;;;;;;;6.78;4.22;;;;;;;19.64;38.91;95271.06;5047608;28;20529;-73
2022/10/08 10:36:00;;;;;;;7.95;4.30;;;;;;;19.65;38.79;95264.78;5054230;28;20070;-76
2022/10/08 10:38:27;;;;;;;5.97;3.88;;;;;;;19.69;37.56;95267.94;5034359;28;20063;-76
2022/10/08 10:41:14;;;;;;;5.53;3.42;;;;;;;19.78;37.54;95261.59;5065391;28;20056;-80
2022/10/08 10:43:56;;;;;;;6.47;3.80;;;;;;;19.72;38.98;95249.94;5062476;28;20131;-74
2022/10/08 10:46:34;;;;;;;5.38;3.92;;;;;;;19.93;38.33;95244.06;5045157;28;20036;-75
2022/10/08 10:48:59;;;;;;;6.95;3.95;;;;;;;19.98;37.97;95239.09;5062657;28;20098;-75
2022/10/08 10:52:07;;;;;;;5.20;3.53;;;;;;;20.01;37.88;95241.38;5066133;28;20032;-75
2022/10/08 10:54:48;;;;;;;6.60;3.88;;;;;;;20.02;37.79;95229.84;5036465;28;20109;-73
2022/10/08 10:57:25;;;;;;;9.18;3.63;;;;;;;20.06;37.50;95227.69;5066576;28;20041;-73
2022/10/08 11:00:15;;;;;;;5.40;3.53;;;;;;;20.02;36.82;95227.19;5067605;28;20024;-73
2022/10/08 11:03:22;;;;;;;4.47;3.65;;;;;;;20.04;38.12;95217.31;5067368;28;20571;-72
2022/10/08 11:05:50;;;;;;;5.60;3.65;;;;;;;20.13;37.70;95209.34;5064770;28;20521;-73
2022/10/08 11:08:40;;;;;;;6.07;3.70;;;;;;;20.21;37.90;95210.09;5044092;28;20044;-73
2022/10/08 11:11:31;;;;;;;5.97;3.77;;;;;;;20.24;38.35;95203.66;5050373;28;20060;-73
2022/10/08 11:14:16;;;;;;;6.05;3.80;;;;;;;20.25;38.38;95206.13;5040890;28;20052;-73
2022/10/08 11:16:44;;;;;;;8.75;3.80;;;;;;;20.29;37.99;95202.13;5047931;28;20029;-71
2022/10/08 11:19:28;;;;;;;5.25;3.75;;;;;;;20.28;37.57;95194.38;5050136;28;20025;-72
2022/10/08 11:22:14;;;;;;;6.93;3.47;;;;;;;20.36;37.89;95188.22;5033172;28;20418;-72
2022/10/08 11:25:02;;;;;;;5.95;3.60;;;;;;;20.41;37.25;95191.13;5065345;28;20556;-73
2022/10/08 11:27:44;;;;;;;7.28;3.70;;;;;;;20.35;36.72;95179.47;5048791;28;20033;-73
2022/10/08 11:30:22;;;;;;;5.38;3.45;;;;;;;20.44;37.45;95180.22;5035904;28;20079;-73
2022/10/08 11:32:52;;;;;;;4.93;3.67;;;;;;;20.46;37.06;95165.84;5017976;28;20032;-73
2022/10/08 11:35:45;;;;;;;4.75;3.25;;;;;;;20.52;36.93;95180.16;5034331;28;20427;-73
2022/10/08 11:38:31;;;;;;;4.93;3.53;;;;;;;20.49;36.40;95169.97;5051081;28;20053;-73
2022/10/08 11:41:29;;;;;;;5.90;4.13;;;;;;;20.57;36.02;95159.34;5030165;28;20049;-73
2022/10/08 11:44:00;;;;;;;6.55;3.58;;;;;;;20.64;35.74;95165.53;5035422;28;20049;-73
2022/10/08 11:46:30;;;;;;;6.43;3.65;;;;;;;20.65;35.67;95159.28;5051680;28;20541;-73
2022/10/08 11:49:15;;;;;;;5.22;2.97;;;;;;;20.73;36.68;95155.75;5052301;28;20126;-73
2022/10/08 11:51:48;;;;;;;4.15;3.28;;;;;;;20.75;36.62;95151.06;5030256;28;20128;-73